sensor_id;sensor_type;location;lat;lon;timestamp;P1;durP1;ratioP1;P2;durP2;ratioP2
53939;SDS011;39850;43.324;21.916;2023-02-28T00:24:08;53.0;;;42.0;;
53939;SDS011;39850;43.324;21.916;2023-02-28T00:28:45;53.0;;;42.0;;
53939;SDS011;39850;43.324;21.916;2023-02-28T00:33:22;48.0;;;40.0;;
53939;SDS011;39850;43.324;21.916;2023-02-28T00:37:59;48.0;;;40.0;;
53939;SDS011;39850;43.324;21.916;2023-02-28T00:42:38;51.0;;;42.0;;
53939;SDS011;39850;43.324;21.916;2023-02-28T00:47:16;51.0;;;42.0;;
53939;SDS011;39850;43.324;21.916;2023-02-28T00:51:56;47.0;;;40.0;;
53939;SDS011;39850;43.324;21.916;2023-02-28T00:56:33;47.0;;;40.0;;
53939;SDS011;39850;43.324;21.916;2023-02-28T01:01:10;47.0;;;40.0;;
53939;SDS011;39850;43.324;21.916;2023-02-28T01:05:48;51.0;;;42.0;;
53939;SDS011;39850;43.324;21.916;2023-02-28T01:10:28;51.0;;;42.0;;
53939;SDS011;39850;43.324;21.916;2023-02-28T01:42:55;38.0;;;34.0;;
53939;SDS011;39850;43.324;21.916;2023-02-28T01:47:46;38.0;;;34.0;;
53939;SDS011;39850;43.324;21.916;2023-02-28T01:52:31;38.0;;;34.0;;
53939;SDS011;39850;43.324;21.916;2023-02-28T01:57:32;38.0;;;34.0;;
53939;SDS011;39850;43.324;21.916;2023-02-28T02:02:18;38.0;;;35.0;;
53939;SDS011;39850;43.324;21.916;2023-02-28T02:06:59;38.0;;;35.0;;
53939;SDS011;39850;43.324;21.916;2023-02-28T02:11:45;38.0;;;36.0;;
53939;SDS011;39850;43.324;21.916;2023-02-28T02:17:19;38.0;;;36.0;;
53939;SDS011;39850;43.324;21.916;2023-02-28T02:24:19;39.0;;;37.0;;
53939;SDS011;39850;43.324;21.916;2023-02-28T03:02:21;46.0;;;40.0;;
53939;SDS011;39850;43.324;21.916;2023-02-28T03:07:00;46.0;;;40.0;;
53939;SDS011;39850;43.324;21.916;2023-02-28T03:11:42;46.0;;;40.0;;
53939;SDS011;39850;43.324;21.916;2023-02-28T03:17:31;44.0;;;39.0;;
53939;SDS011;39850;43.324;21.916;2023-02-28T03:23:13;41.0;;;38.0;;
53939;SDS011;39850;43.324;21.916;2023-02-28T03:28:41;41.0;;;38.0;;
53939;SDS011;39850;43.324;21.916;2023-02-28T03:33:51;40.0;;;37.0;;
53939;SDS011;39850;43.324;21.916;2023-02-28T03:38:58;40.0;;;37.0;;
53939;SDS011;39850;43.324;21.916;2023-02-28T03:44:02;40.0;;;36.0;;
53939;SDS011;39850;43.324;21.916;2023-02-28T03:49:03;40.0;;;36.0;;
53939;SDS011;39850;43.324;21.916;2023-02-28T04:22:18;36.0;;;33.0;;
53939;SDS011;39850;43.324;21.916;2023-02-28T04:26:58;36.0;;;33.0;;
53939;SDS011;39850;43.324;21.916;2023-02-28T04:31:36;36.0;;;33.0;;
53939;SDS011;39850;43.324;21.916;2023-02-28T04:36:13;38.0;;;34.0;;
53939;SDS011;39850;43.324;21.916;2023-02-28T04:40:49;38.0;;;34.0;;
53939;SDS011;39850;43.324;21.916;2023-02-28T04:45:27;38.0;;;34.0;;
53939;SDS011;39850;43.324;21.916;2023-02-28T04:50:06;38.0;;;34.0;;
53939;SDS011;39850;43.324;21.916;2023-02-28T04:54:43;41.0;;;36.0;;
53939;SDS011;39850;43.324;21.916;2023-02-28T04:59:20;41.0;;;36.0;;
53939;SDS011;39850;43.324;21.916;2023-02-28T05:55:00;65.0;;;50.0;;
53939;SDS011;39850;43.324;21.916;2023-02-28T05:59:37;65.0;;;50.0;;
53939;SDS011;39850;43.324;21.916;2023-02-28T06:04:21;65.0;;;50.0;;
53939;SDS011;39850;43.324;21.916;2023-02-28T06:08:57;65.0;;;50.0;;
53939;SDS011;39850;43.324;21.916;2023-02-28T06:13:34;65.0;;;50.0;;
53939;SDS011;39850;43.324;21.916;2023-02-28T06:18:11;65.0;;;50.0;;
53939;SDS011;39850;43.324;21.916;2023-02-28T07:04:26;68.0;;;52.0;;
53939;SDS011;39850;43.324;21.916;2023-02-28T07:09:04;68.0;;;52.0;;
53939;SDS011;39850;43.324;21.916;2023-02-28T07:13:42;67.0;;;52.0;;
53939;SDS011;39850;43.324;21.916;2023-02-28T07:18:19;67.0;;;52.0;;
53939;SDS011;39850;43.324;21.916;2023-02-28T07:22:55;68.0;;;52.0;;
53939;SDS011;39850;43.324;21.916;2023-02-28T07:27:32;68.0;;;52.0;;
53939;SDS011;39850;43.324;21.916;2023-02-28T07:32:09;68.0;;;52.0;;
53939;SDS011;39850;43.324;21.916;2023-02-28T07:36:45;67.0;;;52.0;;
53939;SDS011;39850;43.324;21.916;2023-02-28T07:41:23;67.0;;;52.0;;
53939;SDS011;39850;43.324;21.916;2023-02-28T07:46:09;68.0;;;52.0;;
53939;SDS011;39850;43.324;21.916;2023-02-28T07:50:56;68.0;;;52.0;;
53939;SDS011;39850;43.324;21.916;2023-02-28T08:23:16;81.0;;;58.0;;
53939;SDS011;39850;43.324;21.916;2023-02-28T08:27:53;81.0;;;58.0;;
53939;SDS011;39850;43.324;21.916;2023-02-28T08:32:32;81.0;;;58.0;;
53939;SDS011;39850;43.324;21.916;2023-02-28T08:37:10;83.0;;;59.0;;
53939;SDS011;39850;43.324;21.916;2023-02-28T08:41:47;83.0;;;59.0;;
53939;SDS011;39850;43.324;21.916;2023-02-28T08:46:25;85.0;;;60.0;;
53939;SDS011;39850;43.324;21.916;2023-02-28T08:51:16;85.0;;;60.0;;
53939;SDS011;39850;43.324;21.916;2023-02-28T08:56:07;87.0;;;60.0;;
53939;SDS011;39850;43.324;21.916;2023-02-28T09:00:45;87.0;;;60.0;;
53939;SDS011;39850;43.324;21.916;2023-02-28T09:05:22;89.0;;;61.0;;
53939;SDS011;39850;43.324;21.916;2023-02-28T09:09:58;89.0;;;61.0;;
53939;SDS011;39850;43.324;21.916;2023-02-28T09:57:35;90.0;;;61.0;;
53939;SDS011;39850;43.324;21.916;2023-02-28T10:03:26;86.0;;;59.0;;
53939;SDS011;39850;43.324;21.916;2023-02-28T10:08:26;86.0;;;59.0;;
53939;SDS011;39850;43.324;21.916;2023-02-28T10:13:33;86.0;;;59.0;;
53939;SDS011;39850;43.324;21.916;2023-02-28T10:18:38;86.0;;;59.0;;
53939;SDS011;39850;43.324;21.916;2023-02-28T10:23:36;82.0;;;57.0;;
53939;SDS011;39850;43.324;21.916;2023-02-28T10:28:17;82.0;;;57.0;;
53939;SDS011;39850;43.324;21.916;2023-02-28T10:32:54;82.0;;;57.0;;
53939;SDS011;39850;43.324;21.916;2023-02-28T11:05:38;80.0;;;55.0;;
53939;SDS011;39850;43.324;21.916;2023-02-28T11:10:31;80.0;;;55.0;;
53939;SDS011;39850;43.324;21.916;2023-02-28T11:15:31;80.0;;;56.0;;
53939;SDS011;39850;43.324;21.916;2023-02-28T11:20:30;80.0;;;56.0;;
53939;SDS011;39850;43.324;21.916;2023-02-28T11:25:29;80.0;;;56.0;;
53939;SDS011;39850;43.324;21.916;2023-02-28T11:30:36;80.0;;;56.0;;
53939;SDS011;39850;43.324;21.916;2023-02-28T11:35:38;80.0;;;56.0;;
53939;SDS011;39850;43.324;21.916;2023-02-28T11:41:02;80.0;;;56.0;;
53939;SDS011;39850;43.324;21.916;2023-02-28T11:46:40;79.0;;;56.0;;
53939;SDS011;39850;43.324;21.916;2023-02-28T11:51:51;79.0;;;56.0;;
53939;SDS011;39850;43.324;21.916;2023-02-28T12:30:03;70.0;;;52.0;;
53939;SDS011;39850;43.324;21.916;2023-02-28T12:35:14;70.0;;;52.0;;
53939;SDS011;39850;43.324;21.916;2023-02-28T12:40:17;70.0;;;52.0;;
53939;SDS011;39850;43.324;21.916;2023-02-28T12:45:15;70.0;;;51.0;;
53939;SDS011;39850;43.324;21.916;2023-02-28T12:50:10;70.0;;;51.0;;
53939;SDS011;39850;43.324;21.916;2023-02-28T12:55:16;69.0;;;50.0;;
53939;SDS011;39850;43.324;21.916;2023-02-28T13:00:19;69.0;;;50.0;;
53939;SDS011;39850;43.324;21.916;2023-02-28T13:05:54;68.0;;;49.0;;
53939;SDS011;39850;43.324;21.916;2023-02-28T13:10:51;68.0;;;49.0;;
53939;SDS011;39850;43.324;21.916;2023-02-28T13:45:30;60.0;;;44.0;;
53939;SDS011;39850;43.324;21.916;2023-02-28T13:50:38;60.0;;;44.0;;
53939;SDS011;39850;43.324;21.916;2023-02-28T13:55:54;60.0;;;44.0;;
53939;SDS011;39850;43.324;21.916;2023-02-28T14:01:52;60.0;;;44.0;;
53939;SDS011;39850;43.324;21.916;2023-02-28T14:06:54;59.0;;;44.0;;
53939;SDS011;39850;43.324;21.916;2023-02-28T14:11:42;59.0;;;44.0;;
53939;SDS011;39850;43.324;21.916;2023-02-28T14:16:40;58.0;;;43.0;;
53939;SDS011;39850;43.324;21.916;2023-02-28T14:21:32;58.0;;;43.0;;
53939;SDS011;39850;43.324;21.916;2023-02-28T14:27:36;56.0;;;42.0;;
53939;SDS011;39850;43.324;21.916;2023-02-28T14:32:49;56.0;;;42.0;;
53939;SDS011;39850;43.324;21.916;2023-02-28T15:06:18;44.0;;;35.0;;
53939;SDS011;39850;43.324;21.916;2023-02-28T15:11:13;44.0;;;35.0;;
53939;SDS011;39850;43.324;21.916;2023-02-28T15:16:05;42.0;;;34.0;;
53939;SDS011;39850;43.324;21.916;2023-02-28T15:20:47;42.0;;;34.0;;
53939;SDS011;39850;43.324;21.916;2023-02-28T15:25:27;44.0;;;35.0;;
53939;SDS011;39850;43.324;21.916;2023-02-28T15:30:24;44.0;;;35.0;;
53939;SDS011;39850;43.324;21.916;2023-02-28T15:35:32;42.0;;;34.0;;
53939;SDS011;39850;43.324;21.916;2023-02-28T15:40:30;42.0;;;34.0;;
53939;SDS011;39850;43.324;21.916;2023-02-28T15:45:41;45.0;;;35.0;;
53939;SDS011;39850;43.324;21.916;2023-02-28T15:50:22;45.0;;;35.0;;
53939;SDS011;39850;43.324;21.916;2023-02-28T16:28:38;13.0;;;11.0;;
53939;SDS011;39850;43.324;21.916;2023-02-28T16:33:15;13.0;;;11.0;;
53939;SDS011;39850;43.324;21.916;2023-02-28T16:37:54;12.0;;;10.0;;
53939;SDS011;39850;43.324;21.916;2023-02-28T16:42:32;12.0;;;10.0;;
53939;SDS011;39850;43.324;21.916;2023-02-28T16:47:11;13.0;;;10.0;;
53939;SDS011;39850;43.324;21.916;2023-02-28T16:51:48;13.0;;;10.0;;
53939;SDS011;39850;43.324;21.916;2023-02-28T16:56:26;12.0;;;10.0;;
53939;SDS011;39850;43.324;21.916;2023-02-28T17:01:04;12.0;;;10.0;;
53939;SDS011;39850;43.324;21.916;2023-02-28T17:05:41;13.0;;;10.0;;
53939;SDS011;39850;43.324;21.916;2023-02-28T17:10:26;13.0;;;10.0;;
53939;SDS011;39850;43.324;21.916;2023-02-28T19:29:28;36.0;;;28.0;;
53939;SDS011;39850;43.324;21.916;2023-02-28T19:34:04;36.0;;;28.0;;
53939;SDS011;39850;43.324;21.916;2023-02-28T19:38:43;36.0;;;28.0;;
53939;SDS011;39850;43.324;21.916;2023-02-28T19:43:20;36.0;;;28.0;;
53939;SDS011;39850;43.324;21.916;2023-02-28T19:47:57;36.0;;;28.0;;
53939;SDS011;39850;43.324;21.916;2023-02-28T19:52:33;36.0;;;28.0;;
53939;SDS011;39850;43.324;21.916;2023-02-28T21:57:56;29.0;;;25.0;;
53939;SDS011;39850;43.324;21.916;2023-02-28T22:02:33;29.0;;;25.0;;
53939;SDS011;39850;43.324;21.916;2023-02-28T22:07:10;30.0;;;26.0;;
53939;SDS011;39850;43.324;21.916;2023-02-28T22:11:47;30.0;;;26.0;;
53939;SDS011;39850;43.324;21.916;2023-02-28T22:16:33;30.0;;;26.0;;
53939;SDS011;39850;43.324;21.916;2023-02-28T22:21:18;30.0;;;26.0;;
53939;SDS011;39850;43.324;21.916;2023-02-28T22:26:03;31.0;;;27.0;;
53939;SDS011;39850;43.324;21.916;2023-02-28T22:30:41;31.0;;;27.0;;
53939;SDS011;39850;43.324;21.916;2023-02-28T22:35:18;31.0;;;27.0;;
53939;SDS011;39850;43.324;21.916;2023-02-28T23:16:56;42.0;;;34.0;;
53939;SDS011;39850;43.324;21.916;2023-02-28T23:21:35;42.0;;;34.0;;
53939;SDS011;39850;43.324;21.916;2023-02-28T23:26:12;42.0;;;34.0;;
53939;SDS011;39850;43.324;21.916;2023-02-28T23:30:48;42.0;;;34.0;;
53939;SDS011;39850;43.324;21.916;2023-02-28T23:35:25;42.0;;;34.0;;
53939;SDS011;39850;43.324;21.916;2023-02-28T23:40:09;42.0;;;34.0;;
53939;SDS011;39850;43.324;21.916;2023-02-28T23:44:47;42.0;;;34.0;;
53939;SDS011;39850;43.324;21.916;2023-02-28T23:49:23;41.0;;;34.0;;
53939;SDS011;39850;43.324;21.916;2023-02-28T23:54:00;41.0;;;34.0;;
